createdAt,value
2018-12-20T00:01:30.061Z,23.60
2018-12-20T00:03:31.216Z,26.03
2018-12-20T00:05:32.444Z,24.60
2018-12-20T00:07:33.519Z,25.43
2018-12-20T00:09:34.567Z,26.53
2018-12-20T00:11:35.637Z,25.83
2018-12-20T00:13:36.768Z,22.23
2018-12-20T00:15:37.811Z,24.93
2018-12-20T00:17:47.474Z,25.77
2018-12-20T00:19:48.482Z,24.93
2018-12-20T00:21:49.525Z,25.20
2018-12-20T00:23:50.571Z,25.23
2018-12-20T00:25:51.696Z,24.53
2018-12-20T00:27:52.792Z,24.43
2018-12-20T00:29:53.990Z,23.77
2018-12-20T00:31:55.039Z,23.50
2018-12-20T00:33:56.180Z,24.63
2018-12-20T00:35:57.831Z,22.53
2018-12-20T00:37:58.944Z,22.50
2018-12-20T00:40:06.487Z,24.63
2018-12-20T00:42:03.082Z,22.73
2018-12-20T00:44:04.090Z,22.97
2018-12-20T00:46:05.219Z,24.23
2018-12-20T00:48:06.280Z,24.33
2018-12-20T00:50:07.410Z,24.43
2018-12-20T00:52:08.555Z,21.93
2018-12-20T00:54:09.644Z,20.67
2018-12-20T00:56:10.794Z,20.70
2018-12-20T00:58:12.560Z,21.63
2018-12-20T01:00:13.700Z,21.07
2018-12-20T01:02:15.294Z,21.30
2018-12-20T01:04:16.777Z,20.83
2018-12-20T01:06:18.151Z,22.20
2018-12-20T01:08:19.228Z,22.00
2018-12-20T01:10:20.262Z,22.13
2018-12-20T01:12:21.506Z,23.67
2018-12-20T01:14:22.603Z,21.50
2018-12-20T01:16:23.759Z,21.83
2018-12-20T01:18:25.151Z,20.63
2018-12-20T01:20:26.244Z,21.93
2018-12-20T01:22:27.435Z,21.67
2018-12-20T01:24:28.526Z,20.03
2018-12-20T01:26:29.650Z,21.70
2018-12-20T01:28:30.679Z,21.83
2018-12-20T01:30:31.737Z,23.70
2018-12-20T01:32:33.040Z,22.47
2018-12-20T01:34:34.179Z,22.57
2018-12-20T01:36:35.267Z,21.40
2018-12-20T01:38:36.278Z,21.03
2018-12-20T01:40:37.283Z,22.13
2018-12-20T01:42:38.328Z,21.77
2018-12-20T01:44:39.459Z,22.40
2018-12-20T01:46:40.464Z,22.23
2018-12-20T01:48:41.537Z,23.63
2018-12-20T01:50:42.643Z,22.73
2018-12-20T01:52:43.651Z,21.23
2018-12-20T01:54:44.720Z,20.73
2018-12-20T01:56:45.920Z,22.00
2018-12-20T01:58:48.899Z,22.67
2018-12-20T02:00:50.019Z,20.73
2018-12-20T02:02:51.211Z,20.07
2018-12-20T02:04:52.282Z,21.03
2018-12-20T02:06:53.699Z,20.00
2018-12-20T02:08:54.890Z,20.37
2018-12-20T02:10:56.139Z,20.77
2018-12-20T02:12:57.951Z,20.23
2018-12-20T02:15:01.891Z,20.60
2018-12-20T02:17:02.187Z,20.33
2018-12-20T02:19:03.371Z,21.23
2018-12-20T02:21:04.462Z,22.00
2018-12-20T02:23:05.579Z,19.30
2018-12-20T02:25:06.607Z,20.43
2018-12-20T02:27:07.890Z,20.30
2018-12-20T02:29:09.102Z,20.50
2018-12-20T02:31:10.379Z,19.77
2018-12-20T02:33:11.512Z,19.97
2018-12-20T02:35:12.777Z,20.13
2018-12-20T02:37:13.863Z,19.63
2018-12-20T02:39:14.893Z,20.03
2018-12-20T02:41:16.207Z,20.27
2018-12-20T02:43:17.419Z,18.90
2018-12-20T02:45:18.432Z,19.57
2018-12-20T02:47:21.575Z,19.70
2018-12-20T02:49:22.622Z,19.30
2018-12-20T02:51:23.763Z,18.70
2018-12-20T02:53:24.921Z,17.53
2018-12-20T02:55:25.969Z,18.33
2018-12-20T02:57:27.090Z,20.10
2018-12-20T02:59:28.156Z,18.97
2018-12-20T03:01:29.311Z,18.00
2018-12-20T03:03:30.243Z,17.97
2018-12-20T03:05:31.329Z,19.30
2018-12-20T03:07:32.382Z,18.77
2018-12-20T03:09:33.596Z,18.30
2018-12-20T03:11:34.788Z,16.37
2018-12-20T03:13:35.991Z,19.00
2018-12-20T03:15:37.227Z,19.50
2018-12-20T03:17:38.421Z,18.10
2018-12-20T03:19:39.585Z,17.63
2018-12-20T03:21:40.723Z,18.03
2018-12-20T03:23:41.928Z,17.43
2018-12-20T03:25:43.152Z,18.27
2018-12-20T03:27:44.387Z,18.10
2018-12-20T03:29:45.284Z,18.27
2018-12-20T03:31:46.400Z,17.27
2018-12-20T03:33:47.803Z,16.90
2018-12-20T03:35:48.953Z,17.70
2018-12-20T03:37:50.210Z,17.03
2018-12-20T03:39:51.589Z,16.20
2018-12-20T03:41:52.703Z,15.47
2018-12-20T03:43:53.959Z,15.70
2018-12-20T03:45:55.198Z,16.00
2018-12-20T03:47:56.245Z,14.17
2018-12-20T03:49:57.352Z,14.70
2018-12-20T03:51:58.627Z,14.23
2018-12-20T03:53:59.925Z,16.77
2018-12-20T03:56:01.333Z,13.67
2018-12-20T03:58:02.492Z,14.77
2018-12-20T04:00:03.790Z,14.27
2018-12-20T04:02:04.929Z,14.33
2018-12-20T04:04:05.971Z,13.67
2018-12-20T04:06:06.983Z,12.77
2018-12-20T04:08:08.002Z,14.03
2018-12-20T04:10:09.125Z,14.07
2018-12-20T04:12:10.248Z,13.17
2018-12-20T04:14:11.269Z,14.90
2018-12-20T04:16:12.363Z,15.30
2018-12-20T04:18:13.452Z,15.67
2018-12-20T04:20:14.549Z,13.97
2018-12-20T04:22:15.973Z,14.80
2018-12-20T04:24:17.326Z,15.17
2018-12-20T04:26:18.428Z,15.77
2018-12-20T04:28:19.601Z,15.47
2018-12-20T04:30:20.846Z,15.27
2018-12-20T04:32:22.112Z,14.43
2018-12-20T04:34:23.122Z,16.07
2018-12-20T04:36:24.158Z,16.77
2018-12-20T04:38:25.286Z,18.37
2018-12-20T04:40:26.560Z,19.10
2018-12-20T04:42:27.866Z,22.80
2018-12-20T04:44:28.859Z,16.07
2018-12-20T04:46:30.051Z,17.63
2018-12-20T04:48:31.270Z,15.73
2018-12-20T04:50:32.479Z,18.17
2018-12-20T04:52:33.677Z,17.47
2018-12-20T04:54:34.906Z,16.23
2018-12-20T04:56:36.084Z,15.47
2018-12-20T04:58:37.208Z,16.33
2018-12-20T05:00:40.556Z,14.80
2018-12-20T05:02:41.460Z,15.10
2018-12-20T05:04:42.555Z,16.70
2018-12-20T05:06:43.830Z,15.03
2018-12-20T05:08:45.044Z,15.73
2018-12-20T05:10:46.169Z,14.50
2018-12-20T05:12:47.249Z,16.20
2018-12-20T05:14:48.488Z,17.57
2018-12-20T05:16:49.594Z,15.63
2018-12-20T05:18:50.739Z,15.90
2018-12-20T05:20:51.826Z,14.67
2018-12-20T05:22:52.901Z,15.03
2018-12-20T05:24:54.265Z,16.10
2018-12-20T05:26:55.491Z,14.53
2018-12-20T05:28:56.868Z,16.47
2018-12-20T05:30:58.283Z,15.43
2018-12-20T05:32:59.407Z,16.23
2018-12-20T05:35:00.633Z,15.23
2018-12-20T05:37:01.931Z,15.70
2018-12-20T05:39:03.887Z,15.77
2018-12-20T05:41:05.137Z,15.03
2018-12-20T05:43:06.412Z,16.00
2018-12-20T05:45:07.728Z,15.97
2018-12-20T05:47:08.907Z,16.93
2018-12-20T05:49:10.166Z,17.00
2018-12-20T05:51:11.253Z,17.33
2018-12-20T05:53:12.279Z,17.17
2018-12-20T05:55:13.302Z,15.47
2018-12-20T05:57:14.307Z,18.07
2018-12-20T05:59:15.417Z,18.77
2018-12-20T06:01:16.535Z,17.43
2018-12-20T06:03:17.571Z,18.60
2018-12-20T06:05:18.846Z,18.07
2018-12-20T06:07:19.891Z,17.33
2018-12-20T06:09:21.133Z,15.23
2018-12-20T06:11:22.251Z,15.07
2018-12-20T06:13:23.429Z,14.57
2018-12-20T06:15:24.741Z,15.10
2018-12-20T06:17:26.061Z,14.73
2018-12-20T06:19:27.351Z,15.70
2018-12-20T06:21:28.543Z,15.97
2018-12-20T06:23:29.568Z,16.87
2018-12-20T06:25:30.595Z,17.40
2018-12-20T06:27:31.627Z,16.60
2018-12-20T06:29:32.744Z,15.67
2018-12-20T06:31:33.863Z,16.17
2018-12-20T06:33:34.870Z,17.60
2018-12-20T06:35:35.877Z,17.17
2018-12-20T06:37:36.919Z,17.47
2018-12-20T06:39:37.918Z,17.77
2018-12-20T06:41:43.047Z,17.03
2018-12-20T06:43:44.083Z,18.30
2018-12-20T06:45:45.157Z,15.00
2018-12-20T06:47:46.168Z,15.40
2018-12-20T06:49:47.182Z,14.03
2018-12-20T06:51:48.195Z,13.37
2018-12-20T06:53:49.198Z,14.27
2018-12-20T06:55:50.223Z,13.90
2018-12-20T06:57:51.232Z,14.03
2018-12-20T06:59:52.348Z,14.23
2018-12-20T07:01:53.379Z,13.80
2018-12-20T07:03:54.387Z,14.23
2018-12-20T07:05:55.407Z,15.20
2018-12-20T07:07:56.412Z,13.73
2018-12-20T07:09:57.439Z,13.17
2018-12-20T07:11:58.467Z,14.10
2018-12-20T07:13:59.504Z,13.93
2018-12-20T07:16:00.530Z,13.57
2018-12-20T07:18:01.668Z,12.80
2018-12-20T07:20:02.689Z,13.87
2018-12-20T07:22:03.703Z,13.13
2018-12-20T07:24:04.719Z,11.90
2018-12-20T07:26:05.722Z,12.10
2018-12-20T07:28:06.727Z,12.63
2018-12-20T07:30:07.857Z,12.37
2018-12-20T07:32:09.079Z,12.60
2018-12-20T07:34:10.095Z,11.80
2018-12-20T07:36:11.239Z,12.37
2018-12-20T07:38:12.248Z,12.27
2018-12-20T07:40:13.284Z,14.53
2018-12-20T07:42:14.406Z,15.97
2018-12-20T07:44:15.428Z,15.33
2018-12-20T07:46:16.562Z,15.27
2018-12-20T07:48:17.683Z,15.87
2018-12-20T07:50:18.686Z,15.23
2018-12-20T07:52:19.694Z,14.23
2018-12-20T07:54:20.708Z,15.67
2018-12-20T07:56:21.724Z,14.20
2018-12-20T07:58:22.747Z,14.63
2018-12-20T08:00:23.761Z,14.50
2018-12-20T08:02:24.884Z,14.70
2018-12-20T08:04:25.907Z,14.40
2018-12-20T08:06:27.038Z,13.23
2018-12-20T08:08:28.159Z,12.50
2018-12-20T08:10:29.072Z,11.13
2018-12-20T08:12:30.114Z,11.87
2018-12-20T08:14:31.129Z,10.77
2018-12-20T08:16:32.246Z,9.77
2018-12-20T08:18:33.268Z,12.23
2018-12-20T08:20:34.403Z,18.73
2018-12-20T08:22:35.303Z,24.57
2018-12-20T08:24:36.303Z,17.60
2018-12-20T08:26:37.410Z,20.33
2018-12-20T08:28:38.419Z,20.90
2018-12-20T08:30:39.423Z,24.10
2018-12-20T08:32:40.447Z,27.67
2018-12-20T08:34:41.460Z,29.50
2018-12-20T08:36:42.483Z,50.17
2018-12-20T08:38:43.487Z,59.03
2018-12-20T08:40:44.491Z,35.30
2018-12-20T08:42:45.646Z,29.57
2018-12-20T08:44:46.655Z,22.83
2018-12-20T08:46:54.388Z,16.80
2018-12-20T08:48:50.692Z,15.32
2018-12-20T08:50:51.809Z,13.80
2018-12-20T08:52:52.826Z,14.37
2018-12-20T08:54:53.827Z,12.83
2018-12-20T08:56:54.736Z,14.50
2018-12-20T08:58:55.779Z,11.10
2018-12-20T09:00:56.786Z,11.43
2018-12-20T09:02:57.823Z,11.07
2018-12-20T09:04:58.950Z,11.20
2018-12-20T09:07:00.074Z,10.63
2018-12-20T09:09:01.079Z,12.40
2018-12-20T09:11:02.115Z,12.07
2018-12-20T09:13:09.497Z,12.03
2018-12-20T09:15:06.051Z,11.23
2018-12-20T09:17:07.063Z,11.97
2018-12-20T09:19:08.191Z,11.13
2018-12-20T09:21:09.199Z,11.60
2018-12-20T09:23:10.226Z,11.60
2018-12-20T09:25:11.251Z,11.50
2018-12-20T09:27:12.259Z,11.67
2018-12-20T09:29:13.278Z,13.27
2018-12-20T09:31:14.280Z,11.90
2018-12-20T09:33:15.294Z,12.70
2018-12-20T09:35:16.319Z,13.33
2018-12-20T09:37:17.327Z,13.40
2018-12-20T09:39:18.342Z,13.00
2018-12-20T09:41:19.339Z,12.20
2018-12-20T09:43:20.343Z,11.17
2018-12-20T09:45:21.491Z,10.83
2018-12-20T09:47:28.502Z,10.93
2018-12-20T09:49:29.571Z,10.03
2018-12-20T09:51:30.582Z,11.00
2018-12-20T09:53:31.735Z,10.60
2018-12-20T09:55:32.765Z,10.30
2018-12-20T09:57:33.782Z,11.03
2018-12-20T09:59:34.821Z,10.43
2018-12-20T10:01:35.724Z,9.23
2018-12-20T10:03:36.790Z,9.03
2018-12-20T10:05:37.811Z,9.00
2018-12-20T10:07:38.847Z,8.00
2018-12-20T10:09:39.848Z,7.43
2018-12-20T10:11:40.863Z,7.13
2018-12-20T10:13:42.003Z,7.33
2018-12-20T10:15:43.011Z,8.03
2018-12-20T10:17:44.039Z,7.30
2018-12-20T10:19:44.947Z,7.80
2018-12-20T10:21:45.855Z,7.07
2018-12-20T10:23:46.883Z,5.90
2018-12-20T10:25:47.891Z,5.40
2018-12-20T10:27:49.014Z,4.93
2018-12-20T10:29:50.035Z,5.20
2018-12-20T10:31:51.055Z,4.67
2018-12-20T10:33:52.059Z,5.10
2018-12-20T10:35:53.111Z,5.07
2018-12-20T10:37:54.242Z,4.67
2018-12-20T10:39:55.475Z,5.13
2018-12-20T10:41:56.479Z,4.63
2018-12-20T10:43:57.509Z,4.03
2018-12-20T10:45:58.639Z,4.30
2018-12-20T10:47:59.695Z,4.67
2018-12-20T10:50:00.699Z,4.40
2018-12-20T10:52:01.768Z,5.10
